createdAt,value
2019-04-26T00:00:33.832Z,99.90
2019-04-26T00:03:04.375Z,99.90
2019-04-26T00:05:34.975Z,99.90
2019-04-26T00:08:03.691Z,99.90
2019-04-26T00:10:48.315Z,99.90
2019-04-26T00:13:35.331Z,99.90
2019-04-26T00:16:12.677Z,99.90
2019-04-26T00:18:41.895Z,99.90
2019-04-26T00:21:11.696Z,99.90
2019-04-26T00:23:40.974Z,99.90
2019-04-26T00:26:11.070Z,99.90
2019-04-26T00:28:41.269Z,99.90
2019-04-26T00:31:11.428Z,99.90
2019-04-26T00:33:40.397Z,99.90
2019-04-26T00:36:09.404Z,99.90
2019-04-26T00:38:38.162Z,99.90
2019-04-26T00:41:07.710Z,99.90
2019-04-26T00:43:36.667Z,99.90
2019-04-26T00:46:06.903Z,99.90
2019-04-26T00:48:40.501Z,99.90
2019-04-26T00:51:10.552Z,99.90
2019-04-26T00:53:41.538Z,99.90
2019-04-26T00:56:11.578Z,99.90
2019-04-26T00:58:41.126Z,99.90
2019-04-26T01:01:09.987Z,99.90
2019-04-26T01:03:38.884Z,99.90
2019-04-26T01:06:10.720Z,99.90
2019-04-26T01:08:39.908Z,99.90
2019-04-26T01:11:09.164Z,99.90
2019-04-26T01:13:38.847Z,99.90
2019-04-26T01:16:08.053Z,99.90
2019-04-26T01:18:37.013Z,99.90
2019-04-26T01:21:08.490Z,99.90
2019-04-26T01:23:40.179Z,99.90
2019-04-26T01:26:17.715Z,99.90
2019-04-26T01:28:52.662Z,99.90
2019-04-26T01:31:21.940Z,99.90
2019-04-26T01:33:51.715Z,99.90
2019-04-26T01:36:22.244Z,99.90
2019-04-26T01:38:53.899Z,99.90
2019-04-26T01:41:32.863Z,99.90
2019-04-26T01:44:08.367Z,99.90
2019-04-26T01:46:43.156Z,99.90
2019-04-26T01:49:13.847Z,99.90
2019-04-26T01:51:48.943Z,99.90
2019-04-26T01:54:22.494Z,99.90
2019-04-26T01:56:55.003Z,99.90
2019-04-26T01:59:25.287Z,99.90
2019-04-26T02:02:13.393Z,99.90
2019-04-26T02:04:46.078Z,99.90
2019-04-26T02:07:17.339Z,99.90
2019-04-26T02:09:46.418Z,99.90
2019-04-26T02:12:15.283Z,99.90
2019-04-26T02:14:44.519Z,99.90
2019-04-26T02:17:13.348Z,99.90
2019-04-26T02:19:42.233Z,99.90
2019-04-26T02:22:45.694Z,99.90
2019-04-26T02:25:14.460Z,99.90
2019-04-26T02:27:43.868Z,99.90
2019-04-26T02:30:12.781Z,99.90
2019-04-26T02:32:41.843Z,99.90
2019-04-26T02:35:11.417Z,99.90
2019-04-26T02:37:41.056Z,99.90
2019-04-26T02:40:14.706Z,99.90
2019-04-26T02:42:44.074Z,99.90
2019-04-26T02:46:03.533Z,99.90
2019-04-26T02:48:58.037Z,99.90
2019-04-26T02:51:34.586Z,99.90
2019-04-26T02:54:10.297Z,99.90
2019-04-26T02:56:41.790Z,99.90
2019-04-26T02:59:40.115Z,99.90
2019-04-26T03:02:21.012Z,99.90
2019-04-26T03:04:52.717Z,99.90
2019-04-26T03:07:44.751Z,99.90
2019-04-26T03:10:14.184Z,99.90
2019-04-26T03:12:45.184Z,99.90
2019-04-26T03:15:42.549Z,99.90
2019-04-26T03:18:38.836Z,99.90
2019-04-26T03:21:16.176Z,99.90
2019-04-26T03:23:58.595Z,99.90
2019-04-26T03:26:37.521Z,99.90
2019-04-26T03:29:21.100Z,99.90
2019-04-26T03:32:01.942Z,99.90
2019-04-26T03:34:45.584Z,99.90
2019-04-26T03:37:45.759Z,99.90
2019-04-26T03:40:37.895Z,99.90
2019-04-26T03:43:38.470Z,99.90
2019-04-26T03:46:35.516Z,99.90
2019-04-26T03:49:46.934Z,99.90
2019-04-26T03:53:07.035Z,99.90
2019-04-26T03:56:16.135Z,99.90
2019-04-26T03:59:02.517Z,99.90
2019-04-26T04:01:39.437Z,99.90
2019-04-26T04:04:27.919Z,99.90
2019-04-26T04:07:04.792Z,99.90
2019-04-26T04:09:31.572Z,99.90
2019-04-26T04:12:21.740Z,99.90
2019-04-26T04:15:00.555Z,99.90
2019-04-26T04:17:45.368Z,99.90
2019-04-26T04:20:40.831Z,99.90
2019-04-26T04:23:53.174Z,99.90
2019-04-26T04:26:32.019Z,99.90
2019-04-26T04:29:39.031Z,99.90
2019-04-26T04:31:57.298Z,99.90
2019-04-26T04:34:36.808Z,99.90
2019-04-26T04:37:09.023Z,99.90
2019-04-26T04:39:49.994Z,99.90
2019-04-26T04:42:35.983Z,99.90
2019-04-26T04:45:53.441Z,99.90
2019-04-26T04:48:44.596Z,99.90
2019-04-26T04:51:46.227Z,99.90
2019-04-26T04:54:24.606Z,99.90
2019-04-26T04:57:33.492Z,99.90
2019-04-26T05:00:26.573Z,99.90
2019-04-26T05:03:47.325Z,99.90
2019-04-26T05:06:53.230Z,99.90
2019-04-26T05:09:33.793Z,99.90
2019-04-26T05:12:15.709Z,99.90
2019-04-26T05:15:52.814Z,99.90
2019-04-26T05:18:52.714Z,99.90
2019-04-26T05:21:48.626Z,99.90
2019-04-26T05:24:45.735Z,99.90
2019-04-26T05:27:57.253Z,99.90
2019-04-26T05:31:17.824Z,99.90
2019-04-26T05:34:44.569Z,99.90
2019-04-26T05:37:29.904Z,99.90
2019-04-26T05:40:35.339Z,99.90
2019-04-26T05:43:49.183Z,99.90
2019-04-26T05:47:18.369Z,99.90
2019-04-26T05:51:00.478Z,99.90
2019-04-26T05:54:13.372Z,99.90
2019-04-26T05:57:06.277Z,99.90
2019-04-26T05:59:56.755Z,99.90
2019-04-26T06:02:59.400Z,99.90
2019-04-26T06:06:06.325Z,99.90
2019-04-26T06:09:23.791Z,99.90
2019-04-26T06:12:02.983Z,99.90
2019-04-26T06:15:04.735Z,99.90
2019-04-26T06:18:16.760Z,99.90
2019-04-26T06:21:05.837Z,99.90
2019-04-26T06:23:57.845Z,99.90
2019-04-26T06:27:09.108Z,99.90
2019-04-26T06:29:44.388Z,99.90
2019-04-26T06:32:22.468Z,99.90
2019-04-26T06:35:20.114Z,99.90
2019-04-26T06:38:57.995Z,99.90
2019-04-26T06:42:14.729Z,99.90
2019-04-26T06:45:43.732Z,99.90
2019-04-26T06:48:27.343Z,99.90
2019-04-26T06:51:08.616Z,99.90
2019-04-26T06:53:58.826Z,99.90
2019-04-26T06:57:12.225Z,99.90
2019-04-26T07:00:02.339Z,99.90
2019-04-26T07:03:03.608Z,99.90
2019-04-26T07:05:36.390Z,99.90
2019-04-26T07:08:42.496Z,99.90
2019-04-26T07:12:12.549Z,99.90
2019-04-26T07:15:28.846Z,99.90
2019-04-26T07:19:03.495Z,99.90
2019-04-26T07:22:35.243Z,99.90
2019-04-26T07:25:24.529Z,99.90
2019-04-26T07:28:10.806Z,99.90
2019-04-26T07:30:57.124Z,99.90
2019-04-26T07:33:44.442Z,99.90
2019-04-26T07:36:34.491Z,99.90
2019-04-26T07:39:26.863Z,99.90
2019-04-26T07:42:58.709Z,99.90
2019-04-26T07:46:04.019Z,99.90
2019-04-26T07:49:10.267Z,99.90
2019-04-26T07:52:12.945Z,99.90
2019-04-26T07:55:22.886Z,99.90
2019-04-26T07:58:40.955Z,99.90
2019-04-26T08:01:19.547Z,99.90
2019-04-26T08:03:59.129Z,99.90
2019-04-26T08:06:57.574Z,99.90
2019-04-26T08:09:28.406Z,99.90
2019-04-26T08:12:04.473Z,99.90
2019-04-26T08:14:44.066Z,99.90
2019-04-26T08:17:30.624Z,99.90
2019-04-26T08:20:12.924Z,99.90
2019-04-26T08:22:47.191Z,99.90
2019-04-26T08:25:18.919Z,99.90
2019-04-26T08:27:49.303Z,99.90
2019-04-26T08:30:19.792Z,99.90
2019-04-26T08:32:57.386Z,99.90
2019-04-26T08:35:30.098Z,99.90
2019-04-26T08:38:13.521Z,99.90
2019-04-26T08:40:39.594Z,99.90
2019-04-26T08:43:30.556Z,99.90
2019-04-26T08:46:18.687Z,99.90
2019-04-26T08:49:11.129Z,99.90
2019-04-26T08:51:42.236Z,99.90
2019-04-26T08:54:18.943Z,99.90
2019-04-26T08:56:51.973Z,99.90
2019-04-26T08:59:25.416Z,99.90
2019-04-26T09:02:06.478Z,99.90
2019-04-26T09:04:49.779Z,99.90
2019-04-26T09:07:25.034Z,99.90
2019-04-26T09:09:57.668Z,99.90
2019-04-26T09:12:29.584Z,99.90
2019-04-26T09:15:02.950Z,99.90
2019-04-26T09:17:32.306Z,99.90
2019-04-26T09:20:07.119Z,99.90
2019-04-26T09:22:48.911Z,99.90
2019-04-26T09:25:34.489Z,99.90
2019-04-26T09:28:07.279Z,99.90
2019-04-26T09:31:07.628Z,99.90
2019-04-26T09:33:41.059Z,99.90
2019-04-26T09:36:10.119Z,99.90
2019-04-26T09:38:38.930Z,99.90
2019-04-26T09:41:08.119Z,99.90
2019-04-26T09:44:02.228Z,99.90
2019-04-26T09:46:48.517Z,99.90
2019-04-26T09:49:28.586Z,99.90
2019-04-26T09:51:57.800Z,99.50
2019-04-26T09:54:26.916Z,98.30
2019-04-26T09:56:56.280Z,98.10
2019-04-26T09:59:25.072Z,99.90
2019-04-26T10:01:55.462Z,99.00
2019-04-26T10:04:25.128Z,99.20
2019-04-26T10:06:54.068Z,99.20
2019-04-26T10:09:22.974Z,98.90
2019-04-26T10:11:59.758Z,99.10
2019-04-26T10:14:36.456Z,98.00
2019-04-26T10:17:21.954Z,98.30
2019-04-26T10:19:53.708Z,99.20
2019-04-26T10:22:24.503Z,99.20
2019-04-26T10:24:53.568Z,98.70
2019-04-26T10:27:22.800Z,99.00
2019-04-26T10:29:51.691Z,98.30
2019-04-26T10:32:21.794Z,98.60
2019-04-26T10:34:51.587Z,98.60
2019-04-26T10:37:20.744Z,98.40
2019-04-26T10:39:49.619Z,98.30
2019-04-26T10:42:18.606Z,97.70
2019-04-26T10:44:47.791Z,97.70
2019-04-26T10:47:17.044Z,98.10
2019-04-26T10:49:47.392Z,97.10
2019-04-26T10:52:33.513Z,98.60
2019-04-26T10:55:20.417Z,97.20
2019-04-26T10:57:50.764Z,96.50
2019-04-26T11:00:29.470Z,96.10
2019-04-26T11:03:00.120Z,95.70
2019-04-26T11:05:29.228Z,96.50
2019-04-26T11:08:17.830Z,95.30
2019-04-26T11:10:48.723Z,95.30
2019-04-26T11:13:18.309Z,95.40
2019-04-26T11:15:47.435Z,96.10
2019-04-26T11:18:19.790Z,95.40
2019-04-26T11:20:46.960Z,95.60
2019-04-26T11:23:15.856Z,96.30
2019-04-26T11:25:44.872Z,95.70
2019-04-26T11:28:17.240Z,95.20
2019-04-26T11:30:48.050Z,94.30
2019-04-26T11:33:15.410Z,93.60
2019-04-26T11:35:44.323Z,92.80
2019-04-26T11:38:13.156Z,92.70
2019-04-26T11:40:44.324Z,92.00
2019-04-26T11:43:15.768Z,91.80
2019-04-26T11:45:45.374Z,91.60
2019-04-26T11:48:14.486Z,92.10
2019-04-26T11:50:43.484Z,92.50
2019-04-26T11:53:12.503Z,92.40
2019-04-26T11:55:41.351Z,91.40
2019-04-26T11:58:10.287Z,90.80
2019-04-26T12:00:43.725Z,92.20
2019-04-26T12:03:12.780Z,92.00
2019-04-26T12:05:50.240Z,92.20
2019-04-26T12:08:24.254Z,91.80
2019-04-26T12:10:53.568Z,91.60
2019-04-26T12:13:24.964Z,91.00
2019-04-26T12:15:54.399Z,92.30
2019-04-26T12:18:23.917Z,90.70
2019-04-26T12:20:53.027Z,90.30
2019-04-26T12:23:21.931Z,89.60
2019-04-26T12:26:09.993Z,90.30
2019-04-26T12:28:40.010Z,87.90
2019-04-26T12:31:09.796Z,88.30
2019-04-26T12:33:39.160Z,90.10
2019-04-26T12:36:13.280Z,89.70
2019-04-26T12:38:40.533Z,89.40
2019-04-26T12:41:11.524Z,90.40
2019-04-26T12:43:39.935Z,90.10
2019-04-26T12:46:31.855Z,90.10
2019-04-26T12:48:59.606Z,90.60
2019-04-26T12:51:28.590Z,90.90
2019-04-26T12:53:57.487Z,90.80
2019-04-26T12:56:26.731Z,90.50
2019-04-26T12:58:56.856Z,90.50
2019-04-26T13:01:26.231Z,90.50
2019-04-26T13:04:05.340Z,90.80
2019-04-26T13:06:37.172Z,90.60
2019-04-26T13:09:13.662Z,91.50
2019-04-26T13:12:07.827Z,92.20
2019-04-26T13:14:55.049Z,92.50
2019-04-26T13:17:31.322Z,93.30
2019-04-26T13:19:59.042Z,93.60
2019-04-26T13:22:27.823Z,94.40
2019-04-26T13:24:56.785Z,96.00
2019-04-26T13:27:25.902Z,96.70
2019-04-26T13:30:02.388Z,97.30
2019-04-26T13:32:25.567Z,96.60
2019-04-26T13:34:54.836Z,97.10
2019-04-26T13:37:24.033Z,97.10
2019-04-26T13:39:55.147Z,97.20
2019-04-26T13:42:23.535Z,96.30
2019-04-26T13:45:00.816Z,95.20
2019-04-26T13:48:07.259Z,96.20
2019-04-26T13:50:39.875Z,95.90
2019-04-26T13:53:08.708Z,95.80
2019-04-26T13:55:37.769Z,95.20
2019-04-26T13:58:06.847Z,94.80
2019-04-26T14:00:35.877Z,95.50
2019-04-26T14:03:04.989Z,95.90
2019-04-26T14:05:33.808Z,95.50
2019-04-26T14:08:03.427Z,95.70
2019-04-26T14:10:32.339Z,95.20
2019-04-26T14:13:01.194Z,96.10
2019-04-26T14:15:30.436Z,95.70
2019-04-26T14:18:00.337Z,96.70
2019-04-26T14:20:32.436Z,95.90
2019-04-26T14:23:20.377Z,95.70
2019-04-26T14:25:56.275Z,95.30
2019-04-26T14:28:25.261Z,95.20
2019-04-26T14:30:54.405Z,95.00
2019-04-26T14:33:26.958Z,94.90
2019-04-26T14:35:54.168Z,95.20
2019-04-26T14:38:27.894Z,95.90
2019-04-26T14:41:03.792Z,95.80
2019-04-26T14:43:24.253Z,96.20
2019-04-26T14:45:56.161Z,96.00
2019-04-26T14:48:35.299Z,96.20
2019-04-26T14:51:07.497Z,96.40
2019-04-26T14:53:25.853Z,96.40
2019-04-26T14:55:55.633Z,96.00
2019-04-26T14:58:29.981Z,96.10
2019-04-26T15:00:58.842Z,96.40
2019-04-26T15:03:34.065Z,96.30
2019-04-26T15:06:23.678Z,96.40
2019-04-26T15:08:53.199Z,96.40
2019-04-26T15:11:22.923Z,96.30
2019-04-26T15:13:52.123Z,96.60
2019-04-26T15:16:23.924Z,96.40
2019-04-26T15:18:52.650Z,96.80
2019-04-26T15:21:22.865Z,96.60
2019-04-26T15:23:55.357Z,97.10
2019-04-26T15:26:29.384Z,97.60
2019-04-26T15:28:52.948Z,97.80
2019-04-26T15:31:24.878Z,97.60
2019-04-26T15:33:52.822Z,97.90
2019-04-26T15:36:23.229Z,98.30
2019-04-26T15:38:52.914Z,99.10
2019-04-26T15:41:56.264Z,99.50
2019-04-26T15:44:49.124Z,99.50
2019-04-26T15:47:42.869Z,99.90
2019-04-26T15:50:19.926Z,99.90
2019-04-26T15:52:49.439Z,99.90
2019-04-26T15:55:18.267Z,99.90
2019-04-26T15:57:47.068Z,99.90
2019-04-26T16:00:16.322Z,99.90
2019-04-26T16:02:45.423Z,99.90
2019-04-26T16:05:16.607Z,99.90
2019-04-26T16:07:44.843Z,99.90
2019-04-26T16:10:13.876Z,99.90
2019-04-26T16:12:42.672Z,99.90
2019-04-26T16:15:14.724Z,99.90
2019-04-26T16:17:42.259Z,99.90
2019-04-26T16:20:11.927Z,99.90
2019-04-26T16:22:42.970Z,99.90
2019-04-26T16:25:13.786Z,99.90
2019-04-26T16:27:43.094Z,99.90
2019-04-26T16:30:32.988Z,99.90
2019-04-26T16:33:06.843Z,99.90
2019-04-26T16:35:36.083Z,99.90
2019-04-26T16:38:22.980Z,99.90
2019-04-26T16:43:36.395Z,99.90
2019-04-26T16:45:54.259Z,99.90
2019-04-26T16:48:25.677Z,99.90
2019-04-26T16:50:54.033Z,99.90
2019-04-26T16:53:39.755Z,99.90
2019-04-26T16:55:53.628Z,99.90
2019-04-26T16:58:24.656Z,99.90
2019-04-26T17:00:57.805Z,99.90
2019-04-26T17:03:26.221Z,99.90
2019-04-26T17:06:04.748Z,99.90
2019-04-26T17:08:25.011Z,99.90
2019-04-26T17:09:51.186Z,99.90
2019-04-26T17:10:56.781Z,99.90
2019-04-26T17:13:29.813Z,99.90
2019-04-26T17:15:58.300Z,99.90
2019-04-26T17:18:27.032Z,99.90
2019-04-26T17:20:56.142Z,99.90
2019-04-26T17:23:35.010Z,99.90
2019-04-26T17:26:13.242Z,99.90
2019-04-26T17:28:42.952Z,99.90
2019-04-26T17:31:12.486Z,99.90
2019-04-26T17:33:41.496Z,99.90
2019-04-26T17:36:11.438Z,99.90
2019-04-26T17:38:42.068Z,99.90
2019-04-26T17:41:13.439Z,99.90
2019-04-26T17:43:46.887Z,99.90
2019-04-26T17:46:14.543Z,99.90
2019-04-26T17:48:44.869Z,99.90
2019-04-26T17:51:18.902Z,99.90
2019-04-26T17:53:48.008Z,99.90
2019-04-26T17:56:14.949Z,99.90
2019-04-26T17:58:52.428Z,99.90
2019-04-26T18:01:33.499Z,99.90
2019-04-26T18:03:51.306Z,99.90
2019-04-26T18:06:28.840Z,99.90
2019-04-26T18:08:54.535Z,99.90
2019-04-26T18:11:20.204Z,99.90
2019-04-26T18:13:51.161Z,99.90
2019-04-26T18:16:22.425Z,99.90
2019-04-26T18:19:05.266Z,99.90
2019-04-26T18:21:56.491Z,99.90
2019-04-26T18:24:23.420Z,99.90
2019-04-26T18:26:59.113Z,99.90
2019-04-26T18:29:29.157Z,99.90
2019-04-26T18:31:53.947Z,99.90
2019-04-26T18:34:23.223Z,99.90
2019-04-26T18:36:52.139Z,99.90
2019-04-26T18:39:22.748Z,99.90
2019-04-26T18:41:51.588Z,99.90
2019-04-26T18:44:20.374Z,99.90
2019-04-26T18:46:54.397Z,99.90
2019-04-26T18:49:26.946Z,99.90
2019-04-26T18:51:54.661Z,99.90
2019-04-26T18:54:43.684Z,99.90
2019-04-26T18:57:15.542Z,99.90
2019-04-26T18:59:44.717Z,99.90
2019-04-26T19:02:18.615Z,99.90
2019-04-26T19:04:48.326Z,99.90
2019-04-26T19:07:31.031Z,99.90
2019-04-26T19:09:58.784Z,99.90
2019-04-26T19:12:23.352Z,99.90
2019-04-26T19:15:09.084Z,99.90
2019-04-26T19:17:56.058Z,99.90
2019-04-26T19:20:32.366Z,99.90
2019-04-26T19:23:03.074Z,99.90
2019-04-26T19:25:35.637Z,99.90
2019-04-26T19:28:07.993Z,99.90
2019-04-26T19:30:34.987Z,99.90
2019-04-26T19:33:04.430Z,99.90
2019-04-26T19:35:33.468Z,99.90
2019-04-26T19:38:03.267Z,99.90
2019-04-26T19:40:32.357Z,99.90
2019-04-26T19:43:03.277Z,99.90
2019-04-26T19:45:52.035Z,99.90
2019-04-26T19:48:31.372Z,99.90
2019-04-26T19:51:12.132Z,99.90
2019-04-26T19:53:51.147Z,99.90
2019-04-26T19:56:27.332Z,99.90
2019-04-26T19:58:57.456Z,99.90
2019-04-26T20:01:24.876Z,99.90
2019-04-26T20:03:55.430Z,99.90
2019-04-26T20:06:26.741Z,99.90
2019-04-26T20:08:54.966Z,99.90
2019-04-26T20:11:23.836Z,99.90
2019-04-26T20:13:55.153Z,99.90
2019-04-26T20:16:25.786Z,99.90
2019-04-26T20:18:54.411Z,99.90
2019-04-26T20:21:23.293Z,99.90
2019-04-26T20:23:54.367Z,99.90
2019-04-26T20:26:23.026Z,99.90
2019-04-26T20:28:52.027Z,99.90
2019-04-26T20:31:28.268Z,99.90
2019-04-26T20:33:57.121Z,99.90
2019-04-26T20:36:26.383Z,99.90
2019-04-26T20:38:55.375Z,99.90
2019-04-26T20:41:24.221Z,99.90
2019-04-26T20:44:05.142Z,99.90
2019-04-26T20:46:25.100Z,99.90
2019-04-26T20:48:54.551Z,99.90
2019-04-26T20:51:24.149Z,99.90
2019-04-26T20:53:53.248Z,99.90
2019-04-26T20:56:22.622Z,99.90
2019-04-26T20:58:52.257Z,99.90
2019-04-26T21:01:22.389Z,99.90
2019-04-26T21:03:51.792Z,99.90
2019-04-26T21:06:22.267Z,99.90
2019-04-26T21:08:52.217Z,99.90
2019-04-26T21:11:22.434Z,99.90
2019-04-26T21:13:51.897Z,99.90
2019-04-26T21:16:22.080Z,99.90
2019-04-26T21:18:52.406Z,99.90
2019-04-26T21:21:21.788Z,99.90
2019-04-26T21:23:51.927Z,99.90
2019-04-26T21:26:32.435Z,99.90
2019-04-26T21:29:20.583Z,99.90
2019-04-26T21:31:59.394Z,99.90
2019-04-26T21:34:34.494Z,99.90
2019-04-26T21:37:17.325Z,99.90
2019-04-26T21:40:12.050Z,99.90
2019-04-26T21:42:43.368Z,99.90
2019-04-26T21:45:11.688Z,99.90
2019-04-26T21:47:40.521Z,99.90
2019-04-26T21:50:09.936Z,99.90
2019-04-26T21:52:38.812Z,99.90
2019-04-26T21:55:07.658Z,99.90
2019-04-26T21:57:36.518Z,99.90
2019-04-26T22:00:09.232Z,99.90
2019-04-26T22:02:38.096Z,99.90
2019-04-26T22:05:08.073Z,99.90
2019-04-26T22:07:39.394Z,99.90
2019-04-26T22:10:18.852Z,99.90
2019-04-26T22:12:47.659Z,99.90
2019-04-26T22:15:29.635Z,99.90
2019-04-26T22:18:03.133Z,99.90
2019-04-26T22:20:39.985Z,99.90
2019-04-26T22:23:25.645Z,99.90
2019-04-26T22:25:56.040Z,99.90
2019-04-26T22:28:26.844Z,99.90
2019-04-26T22:30:59.333Z,99.90
2019-04-26T22:33:27.350Z,99.90
2019-04-26T22:35:58.583Z,99.90
2019-04-26T22:38:27.512Z,99.90
2019-04-26T22:40:56.552Z,99.90
2019-04-26T22:43:41.740Z,99.90
2019-04-26T22:46:44.258Z,99.90
2019-04-26T22:49:05.664Z,99.90
2019-04-26T22:51:37.198Z,99.90
2019-04-26T22:54:06.225Z,99.90
2019-04-26T22:56:37.102Z,99.90
2019-04-26T22:59:08.026Z,99.90
2019-04-26T23:01:39.098Z,99.90
2019-04-26T23:04:07.261Z,99.90
2019-04-26T23:06:36.664Z,99.90
2019-04-26T23:09:07.360Z,99.90
2019-04-26T23:11:45.365Z,99.90
2019-04-26T23:14:19.121Z,99.90
2019-04-26T23:17:18.978Z,99.90
2019-04-26T23:19:54.216Z,99.90
2019-04-26T23:22:24.629Z,99.90
2019-04-26T23:24:56.682Z,99.90
2019-04-26T23:27:23.776Z,99.90
2019-04-26T23:29:55.092Z,99.90
2019-04-26T23:32:23.501Z,99.90
2019-04-26T23:34:53.534Z,99.90
2019-04-26T23:37:24.267Z,99.90
2019-04-26T23:39:53.700Z,99.90
2019-04-26T23:42:23.269Z,99.90
2019-04-26T23:44:53.211Z,99.90
2019-04-26T23:47:23.716Z,99.90
2019-04-26T23:49:53.867Z,99.90
2019-04-26T23:52:24.468Z,99.90
2019-04-26T23:54:53.968Z,99.90
2019-04-26T23:57:22.808Z,99.90
2019-04-26T23:59:58.610Z,99.90
